createdAt,value
2018-02-04T00:01:36.867Z,-0.90
2018-02-04T00:04:04.397Z,-0.90
2018-02-04T00:06:32.700Z,-0.90
2018-02-04T00:09:00.710Z,-0.90
2018-02-04T00:11:28.545Z,-0.90
2018-02-04T00:13:56.087Z,-0.90
2018-02-04T00:16:23.625Z,-0.90
2018-02-04T00:18:51.169Z,-0.90
2018-02-04T00:21:19.460Z,-1.00
2018-02-04T00:23:47.005Z,-1.00
2018-02-04T00:26:15.297Z,-1.00
2018-02-04T00:28:42.851Z,-1.00
2018-02-04T00:31:10.387Z,-1.00
2018-02-04T00:33:37.929Z,-1.10
2018-02-04T00:36:05.460Z,-1.10
2018-02-04T00:38:33.010Z,-1.10
2018-02-04T00:41:00.533Z,-1.20
2018-02-04T00:43:28.847Z,-1.20
2018-02-04T00:45:56.381Z,-1.30
2018-02-04T00:48:23.928Z,-1.30
2018-02-04T00:50:52.225Z,-1.40
2018-02-04T00:53:19.785Z,-1.40
2018-02-04T00:55:47.312Z,-1.40
2018-02-04T00:58:15.841Z,-1.40
2018-02-04T01:00:43.360Z,-1.50
2018-02-04T01:03:11.665Z,-1.50
2018-02-04T01:05:39.190Z,-1.50
2018-02-04T01:08:07.500Z,-1.50
2018-02-04T01:10:35.017Z,-1.50
2018-02-04T01:13:03.335Z,-1.40
2018-02-04T01:15:30.859Z,-1.40
2018-02-04T01:17:59.165Z,-1.40
2018-02-04T01:20:26.694Z,-1.40
2018-02-04T01:22:55.005Z,-1.30
2018-02-04T01:25:22.532Z,-1.30
2018-02-04T01:27:50.842Z,-1.30
2018-02-04T01:30:18.361Z,-1.30
2018-02-04T01:32:46.665Z,-1.20
2018-02-04T01:35:14.193Z,-1.20
2018-02-04T01:37:42.510Z,-1.10
2018-02-04T01:40:10.046Z,-1.10
2018-02-04T01:42:37.593Z,-1.10
2018-02-04T01:45:05.883Z,-1.00
2018-02-04T01:47:33.425Z,-1.00
2018-02-04T01:50:00.964Z,-1.00
2018-02-04T01:52:29.287Z,-0.90
2018-02-04T01:54:56.807Z,-0.90
2018-02-04T01:57:24.356Z,-0.90
2018-02-04T01:59:51.880Z,-0.90
2018-02-04T02:02:19.422Z,-0.80
2018-02-04T02:04:46.951Z,-0.80
2018-02-04T02:07:15.267Z,-0.80
2018-02-04T02:09:42.785Z,-0.80
2018-02-04T02:12:11.090Z,-0.70
2018-02-04T02:14:38.614Z,-0.80
2018-02-04T02:17:06.919Z,-0.70
2018-02-04T02:19:34.469Z,-0.70
2018-02-04T02:22:01.993Z,-0.60
2018-02-04T02:24:29.532Z,-0.60
2018-02-04T02:26:57.060Z,-0.60
2018-02-04T02:29:24.592Z,-0.60
2018-02-04T02:31:52.118Z,-0.60
2018-02-04T02:34:19.685Z,-0.60
2018-02-04T02:36:47.977Z,-0.60
2018-02-04T02:39:16.284Z,-0.60
2018-02-04T02:41:43.816Z,-0.60
2018-02-04T02:44:12.124Z,-0.70
2018-02-04T02:46:39.656Z,-0.70
2018-02-04T02:49:07.201Z,-0.70
2018-02-04T02:51:35.493Z,-0.70
2018-02-04T02:54:03.047Z,-0.70
2018-02-04T02:56:30.576Z,-0.60
2018-02-04T02:58:58.117Z,-0.60
2018-02-04T03:01:25.640Z,-0.60
2018-02-04T03:03:53.198Z,-0.60
2018-02-04T03:06:20.723Z,-0.60
2018-02-04T03:08:49.027Z,-0.60
2018-02-04T03:11:16.552Z,-0.60
2018-02-04T03:13:44.088Z,-0.60
2018-02-04T03:16:11.622Z,-0.50
2018-02-04T03:18:39.169Z,-0.50
2018-02-04T03:21:06.728Z,-0.60
2018-02-04T03:23:34.305Z,-0.60
2018-02-04T03:26:01.828Z,-0.60
2018-02-04T03:28:29.376Z,-0.50
2018-02-04T03:30:57.666Z,-0.50
2018-02-04T03:33:25.216Z,-0.50
2018-02-04T03:35:52.747Z,-0.50
2018-02-04T03:38:20.292Z,-0.50
2018-02-04T03:40:48.603Z,-0.50
2018-02-04T03:43:16.918Z,-0.50
2018-02-04T03:45:44.444Z,-0.50
2018-02-04T03:48:11.993Z,-0.50
2018-02-04T03:50:40.289Z,-0.50
2018-02-04T03:53:07.840Z,-0.60
2018-02-04T03:55:35.372Z,-0.60
2018-02-04T03:58:02.914Z,-0.60
2018-02-04T04:00:30.433Z,-0.60
2018-02-04T04:02:57.972Z,-0.60
2018-02-04T04:05:25.501Z,-0.60
2018-02-04T04:07:53.069Z,-0.50
2018-02-04T04:10:21.360Z,-0.50
2018-02-04T04:12:49.648Z,-0.50
2018-02-04T04:15:17.203Z,-0.50
2018-02-04T04:17:44.725Z,-0.50
2018-02-04T04:20:12.282Z,-0.50
2018-02-04T04:22:39.804Z,-0.50
2018-02-04T04:25:07.348Z,-0.50
2018-02-04T04:27:35.638Z,-0.40
2018-02-04T04:30:03.180Z,-0.40
2018-02-04T04:32:30.706Z,-0.40
2018-02-04T04:34:59.017Z,-0.40
2018-02-04T04:37:26.545Z,-0.40
2018-02-04T04:39:54.853Z,-0.40
2018-02-04T04:42:22.373Z,-0.50
2018-02-04T04:44:50.682Z,-0.50
2018-02-04T04:47:18.208Z,-0.50
2018-02-04T04:49:46.523Z,-0.50
2018-02-04T04:52:14.053Z,-0.50
2018-02-04T04:54:42.364Z,-0.50
2018-02-04T04:57:09.878Z,-0.50
2018-02-04T04:59:38.247Z,-0.50
2018-02-04T05:02:05.768Z,-0.50
2018-02-04T05:04:33.310Z,-0.50
2018-02-04T05:07:00.839Z,-0.50
2018-02-04T05:09:29.144Z,-0.50
2018-02-04T05:11:56.672Z,-0.50
2018-02-04T05:14:24.987Z,-0.50
2018-02-04T05:16:52.537Z,-0.50
2018-02-04T05:19:20.081Z,-0.50
2018-02-04T05:21:47.608Z,-0.50
2018-02-04T05:24:15.921Z,-0.50
2018-02-04T05:26:43.444Z,-0.50
2018-02-04T05:29:11.976Z,-0.50
2018-02-04T05:31:39.493Z,-0.50
2018-02-04T05:34:07.060Z,-0.50
2018-02-04T05:36:35.344Z,-0.50
2018-02-04T05:39:02.896Z,-0.50
2018-02-04T05:41:30.424Z,-0.50
2018-02-04T05:43:57.957Z,-0.50
2018-02-04T05:46:25.481Z,-0.40
2018-02-04T05:48:53.028Z,-0.40
2018-02-04T05:51:21.328Z,-0.50
2018-02-04T05:53:48.864Z,-0.50
2018-02-04T05:56:16.390Z,-0.50
2018-02-04T05:58:43.937Z,-0.50
2018-02-04T06:01:11.478Z,-0.50
2018-02-04T06:03:39.035Z,-0.50
2018-02-04T06:06:06.561Z,-0.50
2018-02-04T06:08:34.106Z,-0.50
2018-02-04T06:11:02.386Z,-0.60
2018-02-04T06:13:30.705Z,-0.50
2018-02-04T06:15:58.225Z,-0.60
2018-02-04T06:18:25.749Z,-0.60
2018-02-04T06:20:53.299Z,-0.60
2018-02-04T06:23:20.875Z,-0.60
2018-02-04T06:25:49.199Z,-0.70
2018-02-04T06:28:17.496Z,-0.70
2018-02-04T06:30:45.104Z,-0.70
2018-02-04T06:33:12.590Z,-0.70
2018-02-04T06:35:40.135Z,-0.70
2018-02-04T06:38:07.656Z,-0.80
2018-02-04T06:40:35.209Z,-0.80
2018-02-04T06:43:02.741Z,-0.80
2018-02-04T06:45:30.280Z,-0.70
2018-02-04T06:47:57.807Z,-0.70
2018-02-04T06:50:26.155Z,-0.60
2018-02-04T06:52:53.673Z,-0.70
2018-02-04T06:55:21.209Z,-0.60
2018-02-04T06:57:49.496Z,-0.50
2018-02-04T07:00:17.042Z,-0.60
2018-02-04T07:02:44.568Z,-0.50
2018-02-04T07:05:12.117Z,-0.40
2018-02-04T07:07:39.640Z,-0.40
2018-02-04T07:10:07.188Z,-0.30
2018-02-04T07:12:34.705Z,-0.30
2018-02-04T07:15:02.257Z,-0.20
2018-02-04T07:17:29.819Z,-0.10
2018-02-04T07:19:57.345Z,0.00
2018-02-04T07:22:24.861Z,0.10
2018-02-04T07:24:53.173Z,0.20
2018-02-04T07:27:20.689Z,0.20
2018-02-04T07:29:49.001Z,0.30
2018-02-04T07:32:16.521Z,0.30
2018-02-04T07:34:44.826Z,0.40
2018-02-04T07:37:12.348Z,0.40
2018-02-04T07:39:40.652Z,0.50
2018-02-04T07:42:08.173Z,0.50
2018-02-04T07:44:35.712Z,0.50
2018-02-04T07:47:03.248Z,0.50
2018-02-04T07:49:30.798Z,0.50
2018-02-04T07:51:58.325Z,0.40
2018-02-04T07:54:26.638Z,0.40
2018-02-04T07:56:54.160Z,0.40
2018-02-04T07:59:22.471Z,0.30
2018-02-04T08:01:50.001Z,0.30
2018-02-04T08:04:18.288Z,0.30
2018-02-04T08:06:45.838Z,0.30
2018-02-04T08:09:15.329Z,0.50
2018-02-04T08:11:43.640Z,0.70
2018-02-04T08:14:11.173Z,0.70
2018-02-04T08:16:39.493Z,0.80
2018-02-04T08:19:07.020Z,0.80
2018-02-04T08:21:34.553Z,0.80
2018-02-04T08:24:02.861Z,0.60
2018-02-04T08:26:30.396Z,0.70
2018-02-04T08:28:58.736Z,0.70
2018-02-04T08:31:26.269Z,0.70
2018-02-04T08:33:54.562Z,0.80
2018-02-04T08:36:22.096Z,0.80
2018-02-04T08:38:49.609Z,0.80
2018-02-04T08:41:17.157Z,0.90
2018-02-04T08:43:44.684Z,0.90
2018-02-04T08:46:12.224Z,0.80
2018-02-04T08:48:39.757Z,0.70
2018-02-04T08:51:08.083Z,1.00
2018-02-04T08:53:35.618Z,1.00
2018-02-04T08:56:03.942Z,1.20
2018-02-04T08:58:31.460Z,1.20
2018-02-04T09:00:59.013Z,1.30
2018-02-04T09:03:26.536Z,1.40
2018-02-04T09:05:55.381Z,1.40
2018-02-04T09:08:22.928Z,1.40
2018-02-04T09:10:50.453Z,1.20
2018-02-04T09:13:18.781Z,1.40
2018-02-04T09:15:46.305Z,1.40
2018-02-04T09:18:13.850Z,1.50
2018-02-04T09:20:41.409Z,1.50
2018-02-04T09:23:08.972Z,1.70
2018-02-04T09:25:36.492Z,1.90
2018-02-04T09:28:04.105Z,1.90
2018-02-04T09:30:31.770Z,1.90
2018-02-04T09:32:59.362Z,2.00
2018-02-04T09:35:26.938Z,1.80
2018-02-04T09:37:55.259Z,2.10
2018-02-04T09:40:22.794Z,2.10
2018-02-04T09:42:50.367Z,1.80
2018-02-04T09:45:17.916Z,1.90
2018-02-04T09:47:45.472Z,1.90
2018-02-04T09:50:13.755Z,2.00
2018-02-04T09:52:41.308Z,2.00
2018-02-04T09:55:08.830Z,2.10
2018-02-04T09:57:36.448Z,2.10
2018-02-04T10:00:04.862Z,2.20
2018-02-04T10:02:32.396Z,2.40
2018-02-04T10:04:59.946Z,2.50
2018-02-04T10:07:27.473Z,2.60
2018-02-04T10:09:55.796Z,2.50
2018-02-04T10:12:23.334Z,2.50
2018-02-04T10:14:50.905Z,2.50
2018-02-04T10:17:18.446Z,2.60
2018-02-04T10:19:46.008Z,2.60
2018-02-04T10:22:13.541Z,2.70
2018-02-04T10:24:41.848Z,2.80
2018-02-04T10:27:09.399Z,2.80
2018-02-04T10:29:36.959Z,2.90
2018-02-04T10:32:04.476Z,2.90
2018-02-04T10:34:32.017Z,3.00
2018-02-04T10:36:59.529Z,3.10
2018-02-04T10:39:27.128Z,3.20
2018-02-04T10:41:54.625Z,3.20
2018-02-04T10:44:22.227Z,3.30
2018-02-04T10:46:49.744Z,3.40
2018-02-04T10:49:18.033Z,3.60
2018-02-04T10:51:51.217Z,3.50
2018-02-04T10:54:18.750Z,3.80
2018-02-04T10:56:47.061Z,4.50
2018-02-04T10:59:14.592Z,4.50
2018-02-04T11:01:42.907Z,4.90
2018-02-04T11:04:10.430Z,4.80
2018-02-04T11:06:38.741Z,7.60
2018-02-04T11:09:06.260Z,7.60
2018-02-04T11:11:34.567Z,12.20
2018-02-04T11:14:02.104Z,12.10
2018-02-04T11:16:30.438Z,12.20
2018-02-04T11:18:57.961Z,12.20
2018-02-04T11:21:25.499Z,11.00
2018-02-04T11:23:53.035Z,9.90
2018-02-04T11:26:22.272Z,8.00
2018-02-04T11:28:49.850Z,8.00
2018-02-04T11:31:20.179Z,7.30
2018-02-04T11:33:47.700Z,6.80
2018-02-04T11:36:15.245Z,6.20
2018-02-04T11:38:43.532Z,5.60
2018-02-04T11:41:11.106Z,5.60
2018-02-04T11:43:38.633Z,5.40
2018-02-04T11:46:06.950Z,5.00
2018-02-04T11:48:34.477Z,4.90
2018-02-04T11:51:02.025Z,5.00
2018-02-04T11:53:30.317Z,4.90
2018-02-04T11:55:57.851Z,4.80
2018-02-04T11:58:25.374Z,4.90
2018-02-04T12:00:52.933Z,5.00
2018-02-04T12:03:20.460Z,5.10
2018-02-04T12:05:47.998Z,5.20
2018-02-04T12:08:15.553Z,5.40
2018-02-04T12:10:43.091Z,5.90
2018-02-04T12:13:10.668Z,7.00
2018-02-04T12:15:38.204Z,7.80
2018-02-04T12:18:05.754Z,8.70
2018-02-04T12:20:33.279Z,9.50
2018-02-04T12:23:00.825Z,10.10
2018-02-04T12:25:28.364Z,10.40
2018-02-04T12:27:56.900Z,11.00
2018-02-04T12:30:24.581Z,11.00
2018-02-04T12:32:52.124Z,10.60
2018-02-04T12:35:19.722Z,9.80
2018-02-04T12:37:48.067Z,12.50
2018-02-04T12:40:16.407Z,12.50
2018-02-04T12:42:43.968Z,12.40
2018-02-04T12:45:11.506Z,12.70
2018-02-04T12:47:39.434Z,12.50
2018-02-04T12:50:07.968Z,11.00
2018-02-04T12:52:35.658Z,9.60
2018-02-04T12:55:03.197Z,7.90
2018-02-04T12:57:30.762Z,6.70
2018-02-04T12:59:58.292Z,6.10
2018-02-04T13:02:26.749Z,5.40
2018-02-04T13:04:55.419Z,4.70
2018-02-04T13:07:23.905Z,4.40
2018-02-04T13:09:51.449Z,4.40
2018-02-04T13:12:19.289Z,4.10
2018-02-04T13:14:47.033Z,4.00
2018-02-04T13:17:14.584Z,4.00
2018-02-04T13:19:42.362Z,4.00
2018-02-04T13:22:09.917Z,4.40
2018-02-04T13:24:37.486Z,5.00
2018-02-04T13:27:05.040Z,5.40
2018-02-04T13:29:32.842Z,5.80
2018-02-04T13:32:00.377Z,6.00
2018-02-04T13:34:27.900Z,6.40
2018-02-04T13:36:55.450Z,7.10
2018-02-04T13:39:23.736Z,9.20
2018-02-04T13:41:51.252Z,9.20
2018-02-04T13:44:18.801Z,10.70
2018-02-04T13:46:46.336Z,11.90
2018-02-04T13:49:13.889Z,12.60
2018-02-04T13:51:41.422Z,13.20
2018-02-04T13:54:08.977Z,13.20
2018-02-04T13:56:36.509Z,12.80
2018-02-04T13:59:04.059Z,11.50
2018-02-04T14:01:31.598Z,10.40
2018-02-04T14:03:59.138Z,9.50
2018-02-04T14:06:26.664Z,8.50
2018-02-04T14:08:54.965Z,6.60
2018-02-04T14:11:22.488Z,6.60
2018-02-04T14:13:50.797Z,5.80
2018-02-04T14:16:18.321Z,5.80
2018-02-04T14:18:45.857Z,5.60
2018-02-04T14:21:13.370Z,5.80
2018-02-04T14:23:40.916Z,6.00
2018-02-04T14:26:08.440Z,5.70
2018-02-04T14:28:35.980Z,6.00
2018-02-04T14:31:03.496Z,6.10
2018-02-04T14:33:31.055Z,5.80
2018-02-04T14:35:58.578Z,5.40
2018-02-04T14:38:26.891Z,5.60
2018-02-04T14:40:54.404Z,5.60
2018-02-04T14:43:21.952Z,5.70
2018-02-04T14:45:49.468Z,6.60
2018-02-04T14:48:17.018Z,6.70
2018-02-04T14:50:44.548Z,6.20
2018-02-04T14:53:12.093Z,5.40
2018-02-04T14:55:39.623Z,5.10
2018-02-04T14:58:07.173Z,4.60
2018-02-04T15:00:34.694Z,4.70
2018-02-04T15:03:02.245Z,5.10
2018-02-04T15:05:30.536Z,5.00
2018-02-04T15:07:58.846Z,5.40
2018-02-04T15:10:27.142Z,5.90
2018-02-04T15:12:54.682Z,5.90
2018-02-04T15:15:22.204Z,6.30
2018-02-04T15:17:50.518Z,7.40
2018-02-04T15:20:18.032Z,7.40
2018-02-04T15:22:46.333Z,6.80
2018-02-04T15:25:13.884Z,6.80
2018-02-04T15:27:41.404Z,6.40
2018-02-04T15:30:08.953Z,6.10
2018-02-04T15:32:36.481Z,5.50
2018-02-04T15:35:04.033Z,4.80
2018-02-04T15:37:31.555Z,4.20
2018-02-04T15:39:59.861Z,3.40
2018-02-04T15:42:28.153Z,3.00
2018-02-04T15:44:56.495Z,2.40
2018-02-04T15:47:24.769Z,2.10
2018-02-04T15:49:53.053Z,1.80
2018-02-04T15:52:20.605Z,1.70
2018-02-04T15:54:48.138Z,1.50
2018-02-04T15:57:15.690Z,1.30
2018-02-04T15:59:43.215Z,1.10
2018-02-04T16:02:10.748Z,0.90
2018-02-04T16:04:38.286Z,0.70
2018-02-04T16:07:06.646Z,0.50
2018-02-04T16:09:34.159Z,0.40
2018-02-04T16:12:01.742Z,0.30
2018-02-04T16:14:29.259Z,0.20
2018-02-04T16:16:56.804Z,0.10
2018-02-04T16:19:25.092Z,-0.10
2018-02-04T16:21:52.638Z,-0.10
2018-02-04T16:24:20.942Z,-0.20
2018-02-04T16:26:48.496Z,-0.20
2018-02-04T16:29:16.087Z,-0.20
2018-02-04T16:31:43.640Z,-0.20
2018-02-04T16:34:11.173Z,-0.20
2018-02-04T16:36:38.788Z,-0.30
2018-02-04T16:39:06.309Z,-0.30
2018-02-04T16:41:33.858Z,-0.30
2018-02-04T16:44:01.390Z,-0.30
2018-02-04T16:46:28.956Z,-0.40
2018-02-04T16:48:56.500Z,-0.30
2018-02-04T16:51:24.118Z,-0.30
2018-02-04T16:53:51.695Z,-0.30
2018-02-04T16:56:19.241Z,-0.40
2018-02-04T16:58:46.776Z,-0.40
2018-02-04T17:01:14.369Z,-0.50
2018-02-04T17:03:41.982Z,-0.50
2018-02-04T17:06:09.528Z,-0.60
2018-02-04T17:08:37.044Z,-0.60
2018-02-04T17:11:04.588Z,-0.70
2018-02-04T17:13:32.113Z,-0.70
2018-02-04T17:15:59.650Z,-0.80
2018-02-04T17:18:27.212Z,-0.90
2018-02-04T17:20:54.744Z,-0.90
2018-02-04T17:23:23.064Z,-1.00
2018-02-04T17:25:50.597Z,-1.10
2018-02-04T17:28:18.913Z,-1.10
2018-02-04T17:30:46.454Z,-1.20
2018-02-04T17:33:14.070Z,-1.20
2018-02-04T17:35:42.381Z,-1.30
2018-02-04T17:38:09.937Z,-1.30
2018-02-04T17:40:37.473Z,-1.30
2018-02-04T17:43:05.789Z,-1.40
2018-02-04T17:45:33.336Z,-1.40
2018-02-04T17:48:00.898Z,-1.40
2018-02-04T17:50:29.196Z,-1.40
2018-02-04T17:52:56.756Z,-1.40
2018-02-04T17:55:24.294Z,-1.50
2018-02-04T17:57:51.846Z,-1.50
2018-02-04T18:00:19.450Z,-1.50
2018-02-04T18:02:47.007Z,-1.50
2018-02-04T18:05:15.355Z,-1.60
2018-02-04T18:07:42.900Z,-1.60
2018-02-04T18:10:10.438Z,-1.60
2018-02-04T18:12:38.733Z,-1.70
2018-02-04T18:15:06.288Z,-1.70
2018-02-04T18:17:33.816Z,-1.70
2018-02-04T18:20:02.129Z,-1.70
2018-02-04T18:22:29.658Z,-1.70
2018-02-04T18:24:58.049Z,-1.70
2018-02-04T18:27:25.608Z,-1.70
2018-02-04T18:29:53.935Z,-1.70
2018-02-04T18:32:21.478Z,-1.80
2018-02-04T18:34:49.044Z,-1.80
2018-02-04T18:37:16.623Z,-1.80
2018-02-04T18:39:44.161Z,-1.90
2018-02-04T18:42:17.619Z,-1.90
2018-02-04T18:44:45.236Z,-1.90
2018-02-04T18:47:12.780Z,-1.90
2018-02-04T18:49:40.314Z,-1.80
2018-02-04T18:52:14.041Z,-1.90
2018-02-04T18:54:41.576Z,-1.90
2018-02-04T18:57:09.129Z,-1.80
2018-02-04T18:59:36.662Z,-1.90
2018-02-04T19:02:05.041Z,-2.00
2018-02-04T19:04:33.360Z,-2.10
2018-02-04T19:07:00.972Z,-2.10
2018-02-04T19:09:29.597Z,-2.10
2018-02-04T19:11:57.175Z,-2.20
2018-02-04T19:14:24.739Z,-2.20
2018-02-04T19:16:52.276Z,-2.20
2018-02-04T19:19:21.008Z,-2.20
2018-02-04T19:21:49.336Z,-2.20
2018-02-04T19:24:16.900Z,-2.30
2018-02-04T19:26:44.488Z,-2.30
2018-02-04T19:29:12.048Z,-2.30
2018-02-04T19:31:39.671Z,-2.40
2018-02-04T19:34:08.040Z,-2.30
2018-02-04T19:36:36.907Z,-2.30
2018-02-04T19:39:06.236Z,-2.40
2018-02-04T19:41:34.040Z,-2.40
2018-02-04T19:44:01.638Z,-2.50
2018-02-04T19:46:29.196Z,-2.50
2018-02-04T19:48:56.817Z,-2.50
2018-02-04T19:51:24.368Z,-2.50
2018-02-04T19:53:51.916Z,-2.50
2018-02-04T19:56:19.665Z,-2.60
2018-02-04T19:58:47.240Z,-2.60
2018-02-04T20:01:14.832Z,-2.60
2018-02-04T20:03:46.038Z,-2.70
2018-02-04T20:06:13.637Z,-2.70
2018-02-04T20:08:41.213Z,-2.80
2018-02-04T20:11:11.364Z,-2.80
2018-02-04T20:13:39.002Z,-2.80
2018-02-04T20:16:06.624Z,-2.70
2018-02-04T20:18:35.974Z,-2.70
2018-02-04T20:21:03.558Z,-2.70
2018-02-04T20:23:31.267Z,-2.70
2018-02-04T20:25:58.796Z,-2.80
2018-02-04T20:28:26.478Z,-2.80
2018-02-04T20:30:54.069Z,-2.80
2018-02-04T20:33:23.476Z,-2.70
2018-02-04T20:35:51.907Z,-2.70
2018-02-04T20:38:19.524Z,-2.70
2018-02-04T20:40:47.123Z,-2.70
2018-02-04T20:43:15.549Z,-2.70
2018-02-04T20:45:43.946Z,-2.70
2018-02-04T20:48:11.520Z,-2.60
2018-02-04T20:50:40.083Z,-2.70
2018-02-04T20:53:07.683Z,-2.70
2018-02-04T20:55:35.308Z,-2.70
2018-02-04T20:58:02.920Z,-2.70
2018-02-04T21:00:30.598Z,-2.80
2018-02-04T21:02:58.878Z,-2.90
2018-02-04T21:05:26.511Z,-2.90
2018-02-04T21:07:55.874Z,-2.90
2018-02-04T21:10:23.527Z,-3.00
2018-02-04T21:12:53.758Z,-3.00
2018-02-04T21:15:26.558Z,-3.00
2018-02-04T21:17:54.148Z,-3.10
2018-02-04T21:20:22.472Z,-3.00
2018-02-04T21:22:50.042Z,-3.10
2018-02-04T21:25:17.583Z,-3.00
2018-02-04T21:27:45.109Z,-3.00
2018-02-04T21:33:17.308Z,-3.10
2018-02-04T21:35:44.893Z,-3.20
2018-02-04T21:38:12.412Z,-3.20
2018-02-04T21:40:40.715Z,-3.40
2018-02-04T21:43:08.252Z,-3.40
2018-02-04T21:45:35.796Z,-3.40
2018-02-04T21:48:04.360Z,-3.50
2018-02-04T21:50:34.143Z,-3.50
2018-02-04T21:53:04.267Z,-3.50
2018-02-04T21:55:31.954Z,-3.50
2018-02-04T21:57:59.645Z,-3.40
2018-02-04T22:00:27.349Z,-3.40
2018-02-04T22:02:59.732Z,-3.40
2018-02-04T22:05:27.280Z,-3.40
2018-02-04T22:07:54.854Z,-3.50
2018-02-04T22:10:22.595Z,-3.50
2018-02-04T22:12:50.116Z,-3.50
2018-02-04T22:15:17.886Z,-3.40
2018-02-04T22:17:45.429Z,-3.30
2018-02-04T22:20:14.535Z,-3.30
2018-02-04T22:22:42.130Z,-3.30
2018-02-04T22:25:09.677Z,-3.30
2018-02-04T22:27:37.405Z,-3.30
2018-02-04T22:30:05.709Z,-3.40
2018-02-04T22:32:34.723Z,-3.40
2018-02-04T22:35:02.272Z,-3.40
2018-02-04T22:37:29.904Z,-3.50
2018-02-04T22:39:57.605Z,-3.50
2018-02-04T22:42:25.243Z,-3.60
2018-02-04T22:44:54.692Z,-3.60
2018-02-04T22:47:22.221Z,-3.90
2018-02-04T22:49:49.794Z,-3.70
2018-02-04T22:52:17.324Z,-3.70
2018-02-04T22:54:44.857Z,-3.70
2018-02-04T22:57:12.399Z,-3.70
2018-02-04T22:59:39.943Z,-3.60
2018-02-04T23:02:07.484Z,-3.70
2018-02-04T23:04:35.011Z,-3.60
2018-02-04T23:07:02.556Z,-3.60
2018-02-04T23:09:30.081Z,-3.60
2018-02-04T23:11:57.630Z,-3.70
2018-02-04T23:14:25.188Z,-3.70
2018-02-04T23:16:52.727Z,-3.80
2018-02-04T23:19:20.265Z,-3.70
2018-02-04T23:21:47.830Z,-3.70
2018-02-04T23:24:15.518Z,-3.70
2018-02-04T23:26:43.060Z,-3.70
2018-02-04T23:29:10.588Z,-3.80
2018-02-04T23:31:38.233Z,-3.80
2018-02-04T23:34:06.518Z,-3.80
2018-02-04T23:36:34.045Z,-3.80
2018-02-04T23:39:01.588Z,-3.80
2018-02-04T23:41:30.504Z,-3.80
2018-02-04T23:43:58.830Z,-3.70
2018-02-04T23:46:26.358Z,-3.70
2018-02-04T23:48:53.917Z,-3.70
2018-02-04T23:51:21.451Z,-3.80
2018-02-04T23:53:49.859Z,-3.80
2018-02-04T23:56:17.387Z,-3.80
2018-02-04T23:58:45.695Z,-3.90
